HRM weather

Public forecast

Using degrees Celsius for public forecast. Weather courtesy of forecast.io.

Closest aviation weather report (METAR) to Rancho De Montaña Heliport

Report is more than 6 hours old.

Closest report is Aviador C. Campos Airport, 8.2 nm (15.2 km) NE. Retrieved 2020/08/10 15:38 UTC (4 days ago):

SAZY 101538Z 27023G34KT 9999 SCT030 01/M05 Q1018

Closest aviation forecast (TAF) to Rancho De Montaña Heliport

Forecast is more than 12 hours old.

Closest forecast is Aviador C. Campos Airport, 8.2 nm (15.2 km) NE. Retrieved 2020-04-04 00:45 UTC (4 months ago):

TAF SAZY 032300Z 0400/0424 27010KT 9999 BKN030 TX21/0419Z TN03/0409Z BECMG 0405/0407 27008KT SCT040 BECMG 0408/0410 26005KT CAVOK BECMG 0415/0417 VRB03KT